createdAt,value
2023-03-31T00:00:04.129Z,997.12
2023-03-31T00:00:33.897Z,996.92
2023-03-31T00:00:50.595Z,996.92
2023-03-31T00:01:23.466Z,996.92
2023-03-31T00:01:40.482Z,997.22
2023-03-31T00:02:10.395Z,997.22
2023-03-31T00:02:34.120Z,997.22
2023-03-31T00:02:59.342Z,997.22
2023-03-31T00:03:30.545Z,997.22
2023-03-31T00:04:02.599Z,997.22
2023-03-31T00:04:34.158Z,997.02
2023-03-31T00:04:50.378Z,997.02
2023-03-31T00:05:23.609Z,997.02
2023-03-31T00:05:40.423Z,997.02
2023-03-31T00:06:10.394Z,997.02
2023-03-31T00:06:34.056Z,997.02
2023-03-31T00:06:59.276Z,997.02
2023-03-31T00:07:30.445Z,997.02
2023-03-31T00:08:02.460Z,996.92
2023-03-31T00:08:33.861Z,996.92
2023-03-31T00:08:50.501Z,996.92
2023-03-31T00:09:23.294Z,996.92
2023-03-31T00:09:40.337Z,996.71
2023-03-31T00:10:17.758Z,996.71
2023-03-31T00:10:33.906Z,997.02
2023-03-31T00:10:59.391Z,997.02
2023-03-31T00:11:30.396Z,997.02
2023-03-31T00:12:02.359Z,996.92
2023-03-31T00:12:34.035Z,997.02
2023-03-31T00:12:50.332Z,997.02
2023-03-31T00:13:23.505Z,997.02
2023-03-31T00:13:40.407Z,996.71
2023-03-31T00:14:10.430Z,996.71
2023-03-31T00:14:33.838Z,996.71
2023-03-31T00:14:59.318Z,996.71
2023-03-31T00:15:30.908Z,996.71
2023-03-31T00:16:02.509Z,996.92
2023-03-31T00:16:34.260Z,996.71
2023-03-31T00:17:06.456Z,996.71
2023-03-31T00:17:33.889Z,996.61
2023-03-31T00:17:54.694Z,996.61
2023-03-31T00:18:27.108Z,996.61
2023-03-31T00:18:58.398Z,996.92
2023-03-31T00:19:30.479Z,996.92
2023-03-31T00:20:02.565Z,996.61
2023-03-31T00:20:33.871Z,996.82
2023-03-31T00:20:51.281Z,996.82
2023-03-31T00:21:22.627Z,996.82
2023-03-31T00:21:39.597Z,996.61
2023-03-31T00:22:11.264Z,996.61
2023-03-31T00:22:33.868Z,996.61
2023-03-31T00:22:58.486Z,996.61
2023-03-31T00:23:31.195Z,996.61
2023-03-31T00:24:02.471Z,996.82
2023-03-31T00:24:34.724Z,996.61
2023-03-31T00:25:06.635Z,996.61
2023-03-31T00:25:33.856Z,996.61
2023-03-31T00:25:55.855Z,996.61
2023-03-31T00:26:26.537Z,996.61
2023-03-31T00:26:59.200Z,996.41
2023-03-31T00:27:30.459Z,996.41
2023-03-31T00:28:02.343Z,996.61
2023-03-31T00:28:33.890Z,996.61
2023-03-31T00:28:50.419Z,996.61
2023-03-31T00:29:23.308Z,996.61
2023-03-31T00:29:40.733Z,996.41
2023-03-31T00:30:10.709Z,996.41
2023-03-31T00:30:33.907Z,996.51
2023-03-31T00:30:58.641Z,996.51
2023-03-31T00:31:30.564Z,996.51
2023-03-31T00:32:03.209Z,996.51
2023-03-31T00:32:34.344Z,996.51
2023-03-31T00:33:06.653Z,996.51
2023-03-31T00:33:34.023Z,996.41
2023-03-31T00:33:54.400Z,996.41
2023-03-31T00:34:27.224Z,996.41
2023-03-31T00:34:58.440Z,996.41
2023-03-31T00:35:31.175Z,996.41
2023-03-31T00:36:02.582Z,996.31
2023-03-31T00:36:33.893Z,996.41
2023-03-31T00:36:51.247Z,996.41
2023-03-31T00:37:22.493Z,996.41
2023-03-31T00:37:39.634Z,996.24
2023-03-31T00:38:11.184Z,996.24
2023-03-31T00:38:33.869Z,996.31
2023-03-31T00:38:58.577Z,996.31
2023-03-31T00:39:31.037Z,996.31
2023-03-31T00:40:03.024Z,996.14
2023-03-31T00:40:34.741Z,996.41
2023-03-31T00:41:06.539Z,996.41
2023-03-31T00:41:33.881Z,996.14
2023-03-31T00:41:55.494Z,996.14
2023-03-31T00:42:26.430Z,996.14
2023-03-31T00:42:58.413Z,996.24
2023-03-31T00:43:30.429Z,996.24
2023-03-31T00:44:02.819Z,996.24
2023-03-31T00:44:34.165Z,996.31
2023-03-31T00:44:50.579Z,996.31
2023-03-31T00:45:24.469Z,996.31
2023-03-31T00:45:41.103Z,996.24
2023-03-31T00:46:10.490Z,996.24
2023-03-31T00:46:33.942Z,996.24
2023-03-31T00:46:58.349Z,996.24
2023-03-31T00:47:30.436Z,996.24
2023-03-31T00:48:03.273Z,996.24
2023-03-31T00:48:33.841Z,996.24
2023-03-31T00:48:50.430Z,996.24
2023-03-31T00:49:23.357Z,996.24
2023-03-31T00:49:40.869Z,996.14
2023-03-31T00:50:10.662Z,996.14
2023-03-31T00:50:33.870Z,996.04
2023-03-31T00:50:58.551Z,996.04
2023-03-31T00:51:30.445Z,996.04
2023-03-31T00:52:03.154Z,996.14
2023-03-31T00:52:33.824Z,996.04
2023-03-31T00:52:50.379Z,996.04
2023-03-31T00:53:23.325Z,996.04
2023-03-31T00:53:40.934Z,995.94
2023-03-31T00:54:10.578Z,995.94
2023-03-31T00:54:34.331Z,996.14
2023-03-31T00:54:58.409Z,996.14
2023-03-31T00:55:30.607Z,996.14
2023-03-31T00:56:03.208Z,995.94
2023-03-31T00:56:33.828Z,995.94
2023-03-31T00:56:50.444Z,995.94
2023-03-31T00:57:22.603Z,995.94
2023-03-31T00:57:39.656Z,995.83
2023-03-31T00:58:12.154Z,995.83
2023-03-31T00:58:33.866Z,996.04
2023-03-31T00:58:58.437Z,996.04
2023-03-31T00:59:30.451Z,996.04
2023-03-31T01:00:03.342Z,995.94
2023-03-31T01:00:33.848Z,996.14
2023-03-31T01:00:50.539Z,996.14
2023-03-31T01:01:23.226Z,996.14
2023-03-31T01:01:41.006Z,995.83
2023-03-31T01:02:10.536Z,995.83
2023-03-31T01:02:33.865Z,995.83
2023-03-31T01:02:58.379Z,995.83
2023-03-31T01:03:31.137Z,995.83
2023-03-31T01:04:02.548Z,995.83
2023-03-31T01:04:34.696Z,995.83
2023-03-31T01:05:06.679Z,995.83
2023-03-31T01:05:33.805Z,995.94
2023-03-31T01:05:55.625Z,995.94
2023-03-31T01:06:26.474Z,995.94
2023-03-31T01:06:58.386Z,995.94
2023-03-31T01:07:30.509Z,995.94
2023-03-31T01:08:02.425Z,996.04
2023-03-31T01:08:33.853Z,996.04
2023-03-31T01:08:50.380Z,996.04
2023-03-31T01:09:23.341Z,996.04
2023-03-31T01:09:40.934Z,995.73
2023-03-31T01:10:10.557Z,995.73
2023-03-31T01:10:33.847Z,996.04
2023-03-31T01:10:58.593Z,996.04
2023-03-31T01:11:30.406Z,996.04
2023-03-31T01:12:03.195Z,995.73
2023-03-31T01:12:33.852Z,995.73
2023-03-31T01:12:50.393Z,995.73
2023-03-31T01:13:23.375Z,995.73
2023-03-31T01:13:40.219Z,995.83
2023-03-31T01:14:10.454Z,995.83
2023-03-31T01:14:33.848Z,995.73
2023-03-31T01:14:59.230Z,995.73
2023-03-31T01:15:31.377Z,995.73
2023-03-31T01:16:02.605Z,995.83
2023-03-31T01:16:33.888Z,995.83
2023-03-31T01:16:50.420Z,995.83
2023-03-31T01:17:23.545Z,995.83
2023-03-31T01:17:41.188Z,995.83
2023-03-31T01:18:10.460Z,995.83
2023-03-31T01:18:33.934Z,995.73
2023-03-31T01:18:58.438Z,995.73
2023-03-31T01:19:30.503Z,995.73
2023-03-31T01:20:03.398Z,995.73
2023-03-31T01:20:33.902Z,995.73
2023-03-31T01:20:50.872Z,995.73
2023-03-31T01:21:23.366Z,995.73
2023-03-31T01:21:40.354Z,995.73
2023-03-31T01:22:10.820Z,995.73
2023-03-31T01:22:33.925Z,995.83
2023-03-31T01:22:59.247Z,995.83
2023-03-31T01:23:30.484Z,995.83
2023-03-31T01:24:02.355Z,995.63
2023-03-31T01:24:33.920Z,995.53
2023-03-31T01:24:50.476Z,995.53
2023-03-31T01:25:23.581Z,995.53
2023-03-31T01:25:40.314Z,995.83
2023-03-31T01:26:10.547Z,995.83
2023-03-31T01:26:33.913Z,995.53
2023-03-31T01:26:59.259Z,995.53
2023-03-31T01:27:30.566Z,995.53
2023-03-31T01:28:02.424Z,995.73
2023-03-31T01:28:33.939Z,995.83
2023-03-31T01:28:50.526Z,995.83
2023-03-31T01:29:23.375Z,995.83
2023-03-31T01:29:41.018Z,995.63
2023-03-31T01:30:10.847Z,995.63
2023-03-31T01:30:33.912Z,995.43
2023-03-31T01:30:58.635Z,995.43
2023-03-31T01:31:30.552Z,995.43
2023-03-31T01:32:03.227Z,995.83
2023-03-31T01:32:33.960Z,995.73
2023-03-31T01:32:50.558Z,995.73
2023-03-31T01:33:22.573Z,995.73
2023-03-31T01:33:39.711Z,995.73
2023-03-31T01:34:11.518Z,995.73
2023-03-31T01:34:33.938Z,995.63
2023-03-31T01:34:58.461Z,995.63
2023-03-31T01:35:30.801Z,995.63
2023-03-31T01:36:02.486Z,995.63
2023-03-31T01:36:33.904Z,995.63
2023-03-31T01:36:50.544Z,995.63
2023-03-31T01:37:23.301Z,995.63
2023-03-31T01:37:40.297Z,995.22
2023-03-31T01:38:10.478Z,995.22
2023-03-31T01:38:33.946Z,995.73
2023-03-31T01:38:59.287Z,995.73
2023-03-31T01:39:30.434Z,995.73
2023-03-31T01:40:02.737Z,995.22
2023-03-31T01:40:33.872Z,995.43
2023-03-31T01:40:50.618Z,995.43
2023-03-31T01:41:23.207Z,995.43
2023-03-31T01:41:40.280Z,995.33
2023-03-31T01:42:10.484Z,995.33
2023-03-31T01:42:33.996Z,995.43
2023-03-31T01:42:59.213Z,995.43
2023-03-31T01:43:30.458Z,995.43
2023-03-31T01:44:03.078Z,995.43
2023-03-31T01:44:33.913Z,995.43
2023-03-31T01:44:50.496Z,995.43
2023-03-31T01:45:23.738Z,995.43
2023-03-31T01:45:40.655Z,995.43
2023-03-31T01:46:10.598Z,995.43
2023-03-31T01:46:34.036Z,995.33
2023-03-31T01:46:58.454Z,995.33
2023-03-31T01:47:31.258Z,995.33
2023-03-31T01:48:03.099Z,995.43
2023-03-31T01:48:33.945Z,995.22
2023-03-31T01:48:51.404Z,995.22
2023-03-31T01:49:22.645Z,995.22
2023-03-31T01:49:39.639Z,995.33
2023-03-31T01:50:11.337Z,995.33
2023-03-31T01:50:33.866Z,995.33
2023-03-31T01:50:58.484Z,995.33
2023-03-31T01:51:31.145Z,995.33
2023-03-31T01:52:02.444Z,995.33
2023-03-31T01:52:34.790Z,995.12
2023-03-31T01:53:06.452Z,995.12
2023-03-31T01:53:33.884Z,995.22
2023-03-31T01:53:55.335Z,995.22
2023-03-31T01:54:26.443Z,995.22
2023-03-31T01:54:58.387Z,994.92
2023-03-31T01:55:30.603Z,994.92
2023-03-31T01:56:02.378Z,995.02
2023-03-31T01:56:33.844Z,995.12
2023-03-31T01:56:50.525Z,995.12
2023-03-31T01:57:23.471Z,995.12
2023-03-31T01:57:40.216Z,995.02
2023-03-31T01:58:10.370Z,995.02
2023-03-31T01:58:33.840Z,995.02
2023-03-31T01:58:59.254Z,995.02
2023-03-31T01:59:30.479Z,995.02
2023-03-31T02:00:03.556Z,994.92
2023-03-31T02:00:33.879Z,994.92
2023-03-31T02:00:50.666Z,994.92
2023-03-31T02:01:23.348Z,994.92
2023-03-31T02:01:40.348Z,994.92
2023-03-31T02:02:10.551Z,994.92
2023-03-31T02:02:33.995Z,994.82
2023-03-31T02:02:59.378Z,994.82
2023-03-31T02:03:34.397Z,994.92
2023-03-31T02:04:02.573Z,994.92
2023-03-31T02:04:33.912Z,994.72
2023-03-31T02:04:50.457Z,994.72
2023-03-31T02:05:23.946Z,994.72
2023-03-31T02:05:41.172Z,994.72
2023-03-31T02:06:10.502Z,994.72
2023-03-31T02:06:33.901Z,994.72
2023-03-31T02:06:58.504Z,994.72
2023-03-31T02:07:30.555Z,994.72
2023-03-31T02:08:03.237Z,994.72
2023-03-31T02:08:33.932Z,994.51
2023-03-31T02:08:50.439Z,994.51
2023-03-31T02:09:23.400Z,994.51
2023-03-31T02:09:40.331Z,994.92
2023-03-31T02:10:10.594Z,994.92
2023-03-31T02:10:33.852Z,994.41
2023-03-31T02:10:59.356Z,994.41
2023-03-31T02:11:30.602Z,994.41
2023-03-31T02:12:02.335Z,994.31
2023-03-31T02:12:33.888Z,994.61
2023-03-31T02:12:50.428Z,994.61
2023-03-31T02:13:23.348Z,994.61
2023-03-31T02:13:40.331Z,994.41
2023-03-31T02:14:10.338Z,994.41
2023-03-31T02:14:33.834Z,994.31
2023-03-31T02:14:59.242Z,994.31
2023-03-31T02:15:30.903Z,994.31
2023-03-31T02:16:02.549Z,994.31
2023-03-31T02:16:33.972Z,994.31
2023-03-31T02:16:50.503Z,994.31
2023-03-31T02:17:23.271Z,994.31
2023-03-31T02:17:40.235Z,994.31
2023-03-31T02:18:10.426Z,994.31
2023-03-31T02:18:33.849Z,994.21
2023-03-31T02:18:59.100Z,994.21
2023-03-31T02:19:30.472Z,994.21
2023-03-31T02:20:02.709Z,994.21
2023-03-31T02:20:33.915Z,994.21
2023-03-31T02:20:50.599Z,994.21
2023-03-31T02:21:23.122Z,994.21
2023-03-31T02:21:40.335Z,994.21
2023-03-31T02:22:10.576Z,994.21
2023-03-31T02:22:33.833Z,994.14
2023-03-31T02:22:59.244Z,994.14
2023-03-31T02:23:30.493Z,994.14
2023-03-31T02:24:02.350Z,994.21
2023-03-31T02:24:33.863Z,994.14
2023-03-31T02:24:50.403Z,994.14
2023-03-31T02:25:23.818Z,994.14
2023-03-31T02:25:41.110Z,993.84
2023-03-31T02:26:10.473Z,993.84
2023-03-31T02:26:33.858Z,993.84
2023-03-31T02:26:58.443Z,993.84
2023-03-31T02:27:30.362Z,993.84
2023-03-31T02:28:03.126Z,993.84
2023-03-31T02:28:33.845Z,993.73
2023-03-31T02:28:50.459Z,993.73
2023-03-31T02:29:23.394Z,993.73
2023-03-31T02:29:40.237Z,993.94
2023-03-31T02:30:10.663Z,993.94
2023-03-31T02:30:33.845Z,993.73
2023-03-31T02:30:59.425Z,993.73
2023-03-31T02:31:30.480Z,993.73
2023-03-31T02:32:02.574Z,994.04
2023-03-31T02:32:34.077Z,993.73
2023-03-31T02:32:50.474Z,993.73
2023-03-31T02:33:23.728Z,993.73
2023-03-31T02:33:41.083Z,993.53
2023-03-31T02:34:10.670Z,993.53
2023-03-31T02:34:33.879Z,993.43
2023-03-31T02:34:58.365Z,993.43
2023-03-31T02:35:30.633Z,993.43
2023-03-31T02:36:03.299Z,993.33
2023-03-31T02:36:34.397Z,993.33
2023-03-31T02:37:06.474Z,993.33
2023-03-31T02:37:33.841Z,993.53
2023-03-31T02:37:54.383Z,993.53
2023-03-31T02:38:28.097Z,993.53
2023-03-31T02:38:58.378Z,993.33
2023-03-31T02:39:31.158Z,993.33
2023-03-31T02:40:02.829Z,993.53
2023-03-31T02:40:33.855Z,993.53
2023-03-31T02:40:51.397Z,993.53
2023-03-31T02:41:22.572Z,993.53
2023-03-31T02:41:39.530Z,993.33
2023-03-31T02:42:11.110Z,993.33
2023-03-31T02:42:33.837Z,993.33
2023-03-31T02:42:58.367Z,993.33
2023-03-31T02:43:31.076Z,993.33
2023-03-31T02:44:02.884Z,993.43
2023-03-31T02:44:33.854Z,993.53
2023-03-31T02:44:51.534Z,993.53
2023-03-31T02:45:22.796Z,993.53
2023-03-31T02:45:39.550Z,993.12
2023-03-31T02:46:11.355Z,993.12
2023-03-31T02:46:34.237Z,993.23
2023-03-31T02:46:58.452Z,993.23
2023-03-31T02:47:30.600Z,993.23
2023-03-31T02:48:02.947Z,993.02
2023-03-31T02:48:34.052Z,993.02
2023-03-31T02:48:50.449Z,993.02
2023-03-31T02:49:23.332Z,993.02
2023-03-31T02:49:40.286Z,992.92
2023-03-31T02:50:10.596Z,992.92
2023-03-31T02:50:34.385Z,992.92
2023-03-31T02:50:59.369Z,992.92
2023-03-31T02:51:30.997Z,992.92
2023-03-31T02:52:02.358Z,992.92
2023-03-31T02:52:33.874Z,992.82
2023-03-31T02:52:50.478Z,992.82
2023-03-31T02:53:23.387Z,992.82
2023-03-31T02:53:40.327Z,992.92
2023-03-31T02:54:10.359Z,992.92
2023-03-31T02:54:33.891Z,992.92
2023-03-31T02:54:59.254Z,992.92
2023-03-31T02:55:30.634Z,992.92
2023-03-31T02:56:02.420Z,992.92
2023-03-31T02:56:33.865Z,992.82
2023-03-31T02:56:50.489Z,992.82
2023-03-31T02:57:23.723Z,992.82
2023-03-31T02:57:40.455Z,992.82
2023-03-31T02:58:10.409Z,992.82
2023-03-31T02:58:34.468Z,992.72
2023-03-31T02:58:59.686Z,992.72
2023-03-31T02:59:30.388Z,992.72
2023-03-31T03:00:03.463Z,992.82
2023-03-31T03:00:33.858Z,992.92
2023-03-31T03:00:50.534Z,992.92
2023-03-31T03:01:23.394Z,992.92
2023-03-31T03:01:40.573Z,992.82
2023-03-31T03:02:10.491Z,992.82
2023-03-31T03:02:33.887Z,992.72
2023-03-31T03:02:59.171Z,992.72
2023-03-31T03:03:30.458Z,992.72
2023-03-31T03:04:02.432Z,992.72
2023-03-31T03:04:33.856Z,992.72
2023-03-31T03:04:50.350Z,992.72
2023-03-31T03:05:23.594Z,992.72
2023-03-31T03:05:40.357Z,992.72
2023-03-31T03:06:10.598Z,992.72
2023-03-31T03:06:34.283Z,992.92
2023-03-31T03:06:59.119Z,992.92
2023-03-31T03:07:30.433Z,992.92
2023-03-31T03:08:02.362Z,992.51
2023-03-31T03:08:33.828Z,992.72
2023-03-31T03:08:50.332Z,992.72
2023-03-31T03:09:23.630Z,992.72
2023-03-31T03:09:40.493Z,992.41
2023-03-31T03:10:10.582Z,992.41
2023-03-31T03:10:34.548Z,992.62
2023-03-31T03:10:59.514Z,992.62
2023-03-31T03:11:30.430Z,992.62
2023-03-31T03:12:02.385Z,992.62
2023-03-31T03:12:34.411Z,992.62
2023-03-31T03:13:06.381Z,992.62
2023-03-31T03:13:33.933Z,993.02
2023-03-31T03:13:54.399Z,993.02
2023-03-31T03:14:27.443Z,993.02
2023-03-31T03:14:58.613Z,992.82
2023-03-31T03:15:30.689Z,992.82
2023-03-31T03:16:02.472Z,992.72
2023-03-31T03:16:33.949Z,992.62
2023-03-31T03:16:51.206Z,992.62
2023-03-31T03:17:22.601Z,992.62
2023-03-31T03:17:39.565Z,992.72
2023-03-31T03:18:11.487Z,992.72
2023-03-31T03:18:33.856Z,992.41
2023-03-31T03:18:58.588Z,992.41
2023-03-31T03:19:31.050Z,992.41
2023-03-31T03:20:02.732Z,992.41
2023-03-31T03:20:34.796Z,992.41
2023-03-31T03:21:06.629Z,992.41
2023-03-31T03:21:33.837Z,992.51
2023-03-31T03:21:55.210Z,992.51
2023-03-31T03:22:26.446Z,992.51
2023-03-31T03:22:58.473Z,992.31
2023-03-31T03:23:30.425Z,992.31
2023-03-31T03:24:02.503Z,992.41
2023-03-31T03:24:33.907Z,992.31
2023-03-31T03:24:50.396Z,992.31
2023-03-31T03:25:23.646Z,992.31
2023-03-31T03:25:40.474Z,992.21
2023-03-31T03:26:10.392Z,992.21
2023-03-31T03:26:33.959Z,992.41
2023-03-31T03:26:58.544Z,992.41
2023-03-31T03:27:31.182Z,992.41
2023-03-31T03:28:02.360Z,992.62
2023-03-31T03:28:33.893Z,992.51
2023-03-31T03:28:51.320Z,992.51
2023-03-31T03:29:22.458Z,992.51
2023-03-31T03:29:39.616Z,992.41
2023-03-31T03:30:10.652Z,992.41
2023-03-31T03:30:33.892Z,992.51
2023-03-31T03:30:59.462Z,992.51
2023-03-31T03:31:30.522Z,992.51
2023-03-31T03:32:03.076Z,992.41
2023-03-31T03:32:33.950Z,992.51
2023-03-31T03:32:50.454Z,992.51
2023-03-31T03:33:22.775Z,992.51
2023-03-31T03:33:39.519Z,992.41
2023-03-31T03:34:12.368Z,992.41
2023-03-31T03:34:33.907Z,992.41
2023-03-31T03:34:58.980Z,992.41
2023-03-31T03:35:30.590Z,992.41
2023-03-31T03:36:02.414Z,992.51
2023-03-31T03:36:33.938Z,992.51
2023-03-31T03:36:51.321Z,992.51
2023-03-31T03:37:22.558Z,992.51
2023-03-31T03:37:39.630Z,992.11
2023-03-31T03:38:11.212Z,992.11
2023-03-31T03:38:33.851Z,992.21
2023-03-31T03:38:58.607Z,992.21
2023-03-31T03:39:30.401Z,992.21
2023-03-31T03:40:02.604Z,992.11
2023-03-31T03:40:33.924Z,992.31
2023-03-31T03:40:50.606Z,992.31
2023-03-31T03:41:23.334Z,992.31
2023-03-31T03:41:40.277Z,992.04
2023-03-31T03:42:10.522Z,992.04
2023-03-31T03:42:33.934Z,992.11
2023-03-31T03:42:58.456Z,992.11
2023-03-31T03:43:31.129Z,992.11
2023-03-31T03:44:02.900Z,992.04
2023-03-31T03:44:33.915Z,992.11
2023-03-31T03:44:51.111Z,992.11
2023-03-31T03:45:22.786Z,992.11
2023-03-31T03:45:39.514Z,991.94
2023-03-31T03:46:11.257Z,991.94
2023-03-31T03:46:34.048Z,991.94
2023-03-31T03:46:58.481Z,991.94
2023-03-31T03:47:31.249Z,991.94
2023-03-31T03:48:02.930Z,991.84
2023-03-31T03:48:34.137Z,991.84
2023-03-31T03:48:51.334Z,991.84
2023-03-31T03:49:22.657Z,991.84
2023-03-31T03:49:39.617Z,991.94
2023-03-31T03:50:12.183Z,991.94
2023-03-31T03:50:34.173Z,991.84
2023-03-31T03:50:58.770Z,991.84
2023-03-31T03:51:31.252Z,991.84
2023-03-31T03:52:02.461Z,991.74
2023-03-31T03:52:34.208Z,991.63
2023-03-31T03:53:06.566Z,991.63
2023-03-31T03:53:34.206Z,991.63
2023-03-31T03:53:55.184Z,991.63
2023-03-31T03:54:26.439Z,991.63
2023-03-31T03:54:58.489Z,991.63
2023-03-31T03:55:30.632Z,991.63
2023-03-31T03:56:02.495Z,991.63
2023-03-31T03:56:34.005Z,991.53
2023-03-31T03:56:50.533Z,991.53
2023-03-31T03:57:23.651Z,991.53
2023-03-31T03:57:40.478Z,991.33
2023-03-31T03:58:10.609Z,991.33
2023-03-31T03:58:34.607Z,991.43
2023-03-31T03:58:59.198Z,991.43
2023-03-31T03:59:30.473Z,991.43
2023-03-31T04:00:03.254Z,991.43
2023-03-31T04:00:33.925Z,991.33
2023-03-31T04:00:50.613Z,991.33
2023-03-31T04:01:23.272Z,991.33
2023-03-31T04:01:40.549Z,991.33
2023-03-31T04:02:10.598Z,991.33
2023-03-31T04:02:33.933Z,991.13
2023-03-31T04:02:59.258Z,991.13
2023-03-31T04:03:30.376Z,991.13
2023-03-31T04:04:02.341Z,991.13
2023-03-31T04:04:33.986Z,991.13
2023-03-31T04:04:50.572Z,991.13
2023-03-31T04:05:23.657Z,991.13
2023-03-31T04:05:40.341Z,991.13
2023-03-31T04:06:10.432Z,991.13
2023-03-31T04:06:33.863Z,991.23
2023-03-31T04:06:59.440Z,991.23
2023-03-31T04:07:30.510Z,991.23
2023-03-31T04:08:02.347Z,991.02
2023-03-31T04:08:34.819Z,991.02
2023-03-31T04:09:06.370Z,991.02
2023-03-31T04:09:33.904Z,991.02
2023-03-31T04:09:54.363Z,991.02
2023-03-31T04:10:27.458Z,991.02
2023-03-31T04:10:58.557Z,990.92
2023-03-31T04:11:31.201Z,990.92
2023-03-31T04:12:02.340Z,991.02
2023-03-31T04:12:34.751Z,990.92
2023-03-31T04:13:06.392Z,990.92
2023-03-31T04:13:33.905Z,990.92
2023-03-31T04:13:55.112Z,990.92
2023-03-31T04:14:26.380Z,990.92
2023-03-31T04:14:58.416Z,990.82
2023-03-31T04:15:30.632Z,990.82
2023-03-31T04:16:02.343Z,990.92
2023-03-31T04:16:34.252Z,990.82
2023-03-31T04:17:06.383Z,990.82
2023-03-31T04:17:33.950Z,990.82
2023-03-31T04:17:54.525Z,990.82
2023-03-31T04:18:27.152Z,990.82
2023-03-31T04:18:58.400Z,990.82
2023-03-31T04:19:31.170Z,990.82
2023-03-31T04:20:02.552Z,990.62
2023-03-31T04:20:34.862Z,990.82
2023-03-31T04:21:06.306Z,990.82
2023-03-31T04:21:33.893Z,990.62
2023-03-31T04:21:54.411Z,990.62
2023-03-31T04:22:26.375Z,990.62
2023-03-31T04:22:59.390Z,990.62
2023-03-31T04:23:30.515Z,990.62
2023-03-31T04:24:02.333Z,990.62
2023-03-31T04:24:33.884Z,990.42
2023-03-31T04:24:50.426Z,990.42
2023-03-31T04:25:23.620Z,990.42
2023-03-31T04:25:40.367Z,990.42
2023-03-31T04:26:10.505Z,990.42
2023-03-31T04:26:33.892Z,990.31
2023-03-31T04:26:59.348Z,990.31
2023-03-31T04:27:30.430Z,990.31
2023-03-31T04:28:02.390Z,990.31
2023-03-31T04:28:33.945Z,990.52
2023-03-31T04:28:50.607Z,990.52
2023-03-31T04:29:23.579Z,990.52
2023-03-31T04:29:40.558Z,990.52
2023-03-31T04:30:10.665Z,990.52
2023-03-31T04:30:34.350Z,990.31
2023-03-31T04:30:59.508Z,990.31
2023-03-31T04:31:30.444Z,990.31
2023-03-31T04:32:02.524Z,990.52
2023-03-31T04:32:33.873Z,990.62
2023-03-31T04:32:50.584Z,990.62
2023-03-31T04:33:23.804Z,990.62
2023-03-31T04:33:40.499Z,990.52
2023-03-31T04:34:10.574Z,990.52
2023-03-31T04:34:33.869Z,990.31
2023-03-31T04:34:58.481Z,990.31
2023-03-31T04:35:31.309Z,990.31
2023-03-31T04:36:02.339Z,990.42
2023-03-31T04:36:34.703Z,990.42
2023-03-31T04:37:06.341Z,990.42
2023-03-31T04:37:33.928Z,990.52
2023-03-31T04:37:54.430Z,990.52
2023-03-31T04:38:26.370Z,990.52
2023-03-31T04:38:59.404Z,990.42
2023-03-31T04:39:30.348Z,990.42
2023-03-31T04:40:03.475Z,990.62
2023-03-31T04:40:33.952Z,990.42
2023-03-31T04:40:50.675Z,990.42
2023-03-31T04:41:23.300Z,990.42
2023-03-31T04:41:40.305Z,990.21
2023-03-31T04:42:10.405Z,990.21
2023-03-31T04:42:33.898Z,990.42
2023-03-31T04:42:58.423Z,990.42
2023-03-31T04:43:31.163Z,990.42
2023-03-31T04:44:02.915Z,990.11
2023-03-31T04:44:34.016Z,990.21
2023-03-31T04:44:51.172Z,990.21
2023-03-31T04:45:22.819Z,990.21
2023-03-31T04:45:39.709Z,990.31
2023-03-31T04:46:11.222Z,990.31
2023-03-31T04:46:33.914Z,990.01
2023-03-31T04:47:14.511Z,990.01
2023-03-31T04:47:33.923Z,990.31
2023-03-31T04:48:02.999Z,990.31
2023-03-31T04:48:34.709Z,990.31
2023-03-31T04:49:06.382Z,990.31
2023-03-31T04:49:33.896Z,990.11
2023-03-31T04:49:55.106Z,990.11
2023-03-31T04:50:26.662Z,990.11
2023-03-31T04:50:58.342Z,990.01
2023-03-31T04:51:30.383Z,990.01
2023-03-31T04:52:02.353Z,989.91
2023-03-31T04:52:33.873Z,990.11
2023-03-31T04:52:50.510Z,990.11
2023-03-31T04:53:23.218Z,990.11
2023-03-31T04:53:40.253Z,989.91
2023-03-31T04:54:10.421Z,989.91
2023-03-31T04:54:33.922Z,990.11
2023-03-31T04:54:59.561Z,990.11
2023-03-31T04:55:30.522Z,990.11
2023-03-31T04:56:02.331Z,990.21
2023-03-31T04:56:33.917Z,990.11
2023-03-31T04:56:50.643Z,990.11
2023-03-31T04:57:23.218Z,990.11
2023-03-31T04:57:40.444Z,990.01
2023-03-31T04:58:10.501Z,990.01
2023-03-31T04:58:33.867Z,989.91
2023-03-31T04:58:59.227Z,989.91
2023-03-31T04:59:30.329Z,989.91
2023-03-31T05:00:03.395Z,989.84
2023-03-31T05:00:33.926Z,990.11
2023-03-31T05:00:50.615Z,990.11
2023-03-31T05:01:24.349Z,990.11
2023-03-31T05:01:40.354Z,989.91
2023-03-31T05:02:10.535Z,989.91
2023-03-31T05:02:34.020Z,989.84
2023-03-31T05:02:59.450Z,989.84
2023-03-31T05:03:30.691Z,989.84
2023-03-31T05:04:19.995Z,989.74
2023-03-31T05:04:50.509Z,989.74
2023-03-31T05:05:23.455Z,989.74
2023-03-31T05:05:40.534Z,989.84
2023-03-31T05:06:26.533Z,989.84
2023-03-31T05:06:59.367Z,989.64
2023-03-31T05:07:30.737Z,989.64
2023-03-31T05:08:19.246Z,989.64
2023-03-31T05:08:50.429Z,989.64
2023-03-31T05:09:22.495Z,989.64
2023-03-31T05:09:40.557Z,989.64
2023-03-31T05:10:10.702Z,989.64
2023-03-31T05:10:34.121Z,989.84
2023-03-31T05:10:58.538Z,989.84
2023-03-31T05:11:30.702Z,989.84
2023-03-31T05:12:03.334Z,989.53
2023-03-31T05:12:33.945Z,989.64
2023-03-31T05:12:50.597Z,989.64
2023-03-31T05:13:23.172Z,989.64
2023-03-31T05:13:40.426Z,989.53
2023-03-31T05:14:10.678Z,989.53
2023-03-31T05:14:33.971Z,989.74
2023-03-31T05:14:59.544Z,989.74
2023-03-31T05:15:30.736Z,989.74
2023-03-31T05:16:02.392Z,989.91
2023-03-31T05:16:34.034Z,989.53
2023-03-31T05:16:50.737Z,989.53
2023-03-31T05:17:23.365Z,989.53
2023-03-31T05:17:40.429Z,989.53
2023-03-31T05:18:10.451Z,989.53
2023-03-31T05:18:34.038Z,989.43
2023-03-31T05:18:59.380Z,989.43
2023-03-31T05:19:30.590Z,989.43
2023-03-31T05:20:03.390Z,989.64
2023-03-31T05:20:34.035Z,989.74
2023-03-31T05:20:50.810Z,989.74
2023-03-31T05:21:23.320Z,989.74
2023-03-31T05:21:40.620Z,989.64
2023-03-31T05:22:10.755Z,989.64
2023-03-31T05:22:34.075Z,989.53
2023-03-31T05:22:58.453Z,989.53
2023-03-31T05:23:31.241Z,989.53
2023-03-31T05:24:02.500Z,989.53
2023-03-31T05:24:33.998Z,989.33
2023-03-31T05:24:51.151Z,989.33
2023-03-31T05:25:22.710Z,989.33
2023-03-31T05:25:39.680Z,989.23
2023-03-31T05:26:11.176Z,989.23
2023-03-31T05:26:34.177Z,989.33
2023-03-31T05:26:58.673Z,989.33
2023-03-31T05:27:31.295Z,989.33
2023-03-31T05:28:02.545Z,989.43
2023-03-31T05:28:34.076Z,989.53
2023-03-31T05:28:51.558Z,989.53
2023-03-31T05:29:22.880Z,989.53
2023-03-31T05:29:40.048Z,989.23
2023-03-31T05:30:11.758Z,989.23
2023-03-31T05:30:34.157Z,989.33
2023-03-31T05:30:58.937Z,989.33
2023-03-31T05:31:31.273Z,989.33
2023-03-31T05:32:02.577Z,989.43
2023-03-31T05:32:34.214Z,989.43
2023-03-31T05:32:51.418Z,989.43
2023-03-31T05:33:22.902Z,989.43
2023-03-31T05:33:39.946Z,989.43
2023-03-31T05:34:11.616Z,989.43
2023-03-31T05:34:34.215Z,989.53
2023-03-31T05:34:58.639Z,989.53
2023-03-31T05:35:31.665Z,989.53
2023-03-31T05:36:02.575Z,989.23
2023-03-31T05:36:34.121Z,989.33
2023-03-31T05:37:06.617Z,989.33
2023-03-31T05:37:34.079Z,989.33
2023-03-31T05:37:55.627Z,989.33
2023-03-31T05:38:26.561Z,989.33
2023-03-31T05:38:58.616Z,989.13
2023-03-31T05:39:30.558Z,989.13
2023-03-31T05:40:03.625Z,989.43
2023-03-31T05:40:34.305Z,989.33
2023-03-31T05:41:06.529Z,989.33
2023-03-31T05:41:33.924Z,989.23